Redondo, Valles Caldera, New Mexico Weather observations

Data are for 10 minute period ending at time listed.
 Day   Time   Solar   Ave.   Ave.  Ave.  Vector  Max.   Baro.   Total    
  of    of     Rad.   Air    Rel.  Wind   Wind   Wind  Press.  Precip.   
Year   Day            Temp.  Hum.  Speed  Dir.   Gust                    
2014   (MST)  Kw/m2    F      %     mph   deg.    mph    mb.     in.     
-------------------------------------------------------------------------
 238   21:30   0.00   47.5    89    3.0   172     6.6   696.3    0.00 
 238   21:40   0.00   47.1    91    3.9   170     7.2   696.3    0.00 
 238   21:50   0.00   46.8    92    4.2   162     8.4   696.3    0.01 
 238   22:00   0.00   46.7    93    4.1   175     9.6   696.3    0.00 
 238   22:10   0.00   46.6    94    4.1   170     8.4   696.3    0.00 
 238   22:20   0.00   46.5    93    5.3   175    10.8   696.3    0.00 
 238   22:30   0.00   46.4    93    3.6   177     7.8   696.3    0.01 
 238   22:40   0.00   46.2    94    3.2   272     8.4   696.4    0.09 
 238   22:50   0.00   44.6    94    4.3   309    10.8   696.5    0.08 
 238   23:00   0.00   44.5    96    5.9   318    12.5   696.4    0.06 
 238   23:10   0.00   44.3    96    5.1   321    14.9   696.4    0.03 
 238   23:20   0.00   43.7    96    3.0   306     7.2   696.4    0.03 
 238   23:30   0.00   43.6    96    3.3   260     8.4   696.2    0.02 
 238   23:40   0.00   44.1    96    3.0   308     7.2   696.1    0.00 
 238   23:50   0.00   43.6    96    3.5   316     7.2   696.0    0.00 
 239    0:00   0.00   43.4    95    2.2   310     7.2   695.9    0.00 
 239    0:10   0.00   43.8    93    2.9   356     5.4   695.7    0.00 
 239    0:20   0.00   44.3    90    1.8   290     6.0   695.7    0.00 
 239    0:30   0.00   44.5    89    1.8   237     5.4   695.7    0.00 
 239    0:40   0.00   44.8    87    2.0   191     4.2   695.7    0.00 
 239    0:50   0.00   44.7    88    2.3   253     6.6   695.8    0.00 
 239    1:00   0.00   44.6    89    1.3   237     4.2   695.9    0.00 
 239    1:10   0.00   44.5    90    1.2   249     3.6   695.9    0.00 
 239    1:20   0.00   44.6    89    2.1   207     5.4   695.8    0.00 
 239    1:30   0.00   44.5    89    1.5   229     4.2   695.8    0.00 
 239    1:40   0.00   44.6    90    2.7   204     6.6   695.8    0.00 
 239    1:50   0.00   44.6    90    2.9   176     4.8   695.9    0.00 
 239    2:00   0.00   44.5    90    1.9   180     5.4   695.9    0.00 
 239    2:10   0.00   44.5    89    2.9   191     6.6   695.9    0.00 
 239    2:20   0.00   44.4    90    2.9   195     6.0   695.8    0.00 
 239    2:30   0.00   44.4    91    2.5   186     6.0   695.7    0.00 
 239    2:40   0.00   44.8    90    2.3   170     6.0   695.6    0.00 
 239    2:50   0.00   45.3    90    1.4   260     4.2   695.6    0.00 
 239    3:00   0.00   44.9    91    2.7   301     7.8   695.6    0.00 
 239    3:10   0.00   44.2    92    2.1   272     6.0   695.5    0.00 
 239    3:20   0.00   43.9    93    1.6   277     4.2   695.5    0.00 
 239    3:30   0.00   43.8    94    2.4   283     7.2   695.6    0.00 
 239    3:40   0.00   43.6    94    2.8   302     6.6   695.6    0.00 
 239    3:50   0.00   43.5    95    3.3   306     6.6   695.7    0.00 
 239    4:00   0.00   43.5    95    3.6   316     8.4   695.6    0.00 
 239    4:10   0.00   43.5    96    3.5   312     7.8   695.7    0.00 
 239    4:20   0.00   43.5    96    3.0   337     6.0   695.7    0.00 
 239    4:30   0.00   43.7    96    3.4   333     5.4   695.7    0.00 
 239    4:40   0.00   43.8    96    3.2   305     7.8   695.6    0.00 
 239    4:50   0.00   43.8    96    3.6   326     6.6   695.7    0.00 
 239    5:00   0.00   43.7    96    3.4   328     5.4   695.7    0.00 
 239    5:10   0.00   44.2    96    4.1   328     8.4   695.7    0.00 
 239    5:20   0.00   44.4    96    3.8   325     9.0   695.8    0.00 
 239    5:30   0.00   44.3    97    3.9   323     7.2   695.9    0.00 
 239    5:40   0.00   44.1    97    4.2   325     7.8   696.0    0.00 
 239    5:50   0.00   43.6    96    4.4   325     8.4   696.0    0.00 
 239    6:00   0.01   43.1    96    4.5   324    11.9   696.0    0.00 
 239    6:10   0.01   42.7    96    4.2   320     8.4   696.1    0.00 
 239    6:20   0.01   42.4    96    3.9   320     8.4   696.1    0.00 
 239    6:30   0.02   42.4    96    4.4   319     8.4   696.2    0.00 
 239    6:40   0.09   42.8    96    4.1   321     8.4   696.3    0.00 
 239    6:50   0.15   43.8    94    4.4   318    12.5   696.3    0.00 
 239    7:00   0.14   44.9    90    3.8   310     7.8   696.4    0.00 
 239    7:10   0.10   45.5    89    2.9   314     5.4   696.4    0.00 
 239    7:20   0.21   45.7    87    3.6   313     8.4   696.5    0.00 
 239    7:30   0.21   46.5    82    4.0   312     8.4   696.5    0.00 
 239    7:40   0.35   47.7    81    3.3   312     9.0   696.5    0.00 
 239    7:50   0.41   49.4    77    2.9   320     5.4   696.7    0.00 
 239    8:00   0.45   50.1    73    3.6   320     6.0   696.7    0.00 
 239    8:10   0.48   50.7    73    3.3   314     6.0   696.7    0.00 
 239    8:20   0.52   51.0    72    3.7   323     6.6   696.6    0.00 
 239    8:30   0.56   53.0    66    3.7   327     7.2   696.7    0.00 
 239    8:40   0.59   53.2    66    3.3   321     6.6   696.8    0.00 
 239    8:50   0.62   54.2    63    3.4   324     7.8   696.8    0.00 
 239    9:00   0.65   53.1    64    4.5   313     9.6   696.9    0.00 
 239    9:10   0.68   52.7    67    4.4   318     9.6   696.8    0.00 
 239    9:20   0.71   53.0    67    4.0   311     7.8   696.9    0.00 
 239    9:30   0.73   53.7    66    3.8   299     8.4   697.0    0.00 
 239    9:40   0.71   54.1    65    3.5   318     9.0   696.9    0.00 
 239    9:50   0.77   54.3    64    3.9   316     8.4   697.0    0.00 
 239   10:00   0.80   54.4    62    5.1   311    11.3   696.9    0.00 
 239   10:10   0.80   55.3    62    4.3   310     7.8   696.9    0.00 
 239   10:20   0.84   55.5    61    5.0   328     8.4   696.9    0.00 
 239   10:30   0.86   56.1    58    5.1   321    10.2   696.8    0.00 
 239   10:40   0.77   56.2    56    4.8   321     9.0   696.9    0.00 
 239   10:50   0.65   54.1    60    4.7   306     8.4   696.9    0.00 
 239   11:00   0.93   55.0    57    5.9   318    14.9   696.9    0.00 
 239   11:10   0.79   53.9    58    6.0   304    11.3   696.8    0.00 
 239   11:20   0.95   54.8    56    6.1   316    12.5   696.8    0.00 
 239   11:30   0.74   54.5    62    5.2   311    10.8   696.8    0.00 
 239   11:40   0.78   54.5    60    5.7   328    10.2   696.8    0.00 
 239   11:50   0.39   53.8    60    5.6   322    11.3   696.8    0.00 
 239   12:00   0.76   54.4    62    5.0   315     9.6   696.8    0.00 
 239   12:10   0.23   53.5    62    4.2   319    10.8   696.8    0.00 
 239   12:20   0.56   53.0    66    5.0   321     9.0   696.8    0.00 
 239   12:30   0.50   54.6    62    4.5   322     9.6   696.8    0.00 
 239   12:40   0.50   53.6    58    5.0   289    10.2   696.7    0.00 
 239   12:50   0.47   52.7    59    5.7   314    12.5   696.8    0.00 
 239   13:00   0.68   53.0    62    5.1   301    11.3   696.7    0.00 
 239   13:10   0.84   54.0    62    5.2   296     9.6   696.6    0.00 
 239   13:20   0.77   55.1    62    5.6   316    11.9   696.5    0.00 
 239   13:30   0.88   54.6    63    4.7   291    10.8   696.4    0.00 
 239   13:40   0.85   55.1    61    6.0   299    11.9   696.3    0.00 
 239   13:50   0.29   53.6    63    5.3   300    11.9   696.4    0.00 
 239   14:00   0.12   51.3    65    5.1   316    10.8   696.3    0.00 
 239   14:10   0.35   50.5    71    4.8   307    12.5   696.3    0.00 
 239   14:20   0.52   52.3    71    4.3   317     8.4   696.3    0.00 
 239   14:30   0.36   52.8    67    3.8   312     7.8   696.2    0.00 
 239   14:40   0.33   52.6    64    4.5   272    11.3   696.1    0.00 
 239   14:50   0.26   52.0    65    4.4   316     9.0   696.0    0.00 
 239   15:00   0.34   52.6    66    4.2   321     9.0   695.9    0.00 
 239   15:10   0.51   54.7    60    4.6   307    10.8   695.9    0.00 
 239   15:20   0.63   54.1    59    5.3   296    11.9   696.0    0.00 
 239   15:30   0.70   56.2    57    6.1   291    12.5   695.8    0.00 
 239   15:40   0.60   56.8    55    5.0   302     9.6   695.8    0.00 
 239   15:50   0.54   56.3    52    5.3   296    13.1   695.7    0.00 
 239   16:00   0.60   56.5    50    5.4   292    11.3   695.7    0.00 
 239   16:10   0.23   55.5    53    5.2   322    11.3   695.6    0.00 
 239   16:20   0.33   54.6    55    5.0   321     9.6   695.5    0.00 
 239   16:30   0.39   55.0    54    4.7   305     9.6   695.5    0.00 
 239   16:40   0.29   53.3    56    4.0   298    10.8   695.5    0.00 
 239   16:50   0.36   55.1    52    5.1   305    13.7   695.6    0.00 
 239   17:00   0.34   55.9    51    5.6   322    10.8   695.5    0.00 
 239   17:10   0.32   56.4    48    5.6   327    11.3   695.5    0.00 
 239   17:20   0.29   55.7    48    6.1   305    11.3   695.5    0.00 
 239   17:30   0.24   54.6    49    6.3   300    12.5   695.5    0.00 
 239   17:40   0.20   54.0    47    6.3   309    14.3   695.5    0.00 
 239   17:50   0.16   53.2    49    5.1   306     9.6   695.4    0.00 
 239   18:00   0.09   52.0    52    5.2   322    10.8   695.4    0.00 
 239   18:10   0.03   50.4    54    4.9   309    11.3   695.5    0.00 
 239   18:20   0.02   49.3    57    5.8   322    12.5   695.5    0.00 
 239   18:30   0.01   48.5    58    4.8   318    11.3   695.6    0.00 
 239   18:40   0.01   47.7    60    5.3   319    10.8   695.7    0.00 
 239   18:50   0.00   47.1    62    4.1   321     9.6   695.7    0.00 
 239   19:00   0.00   46.6    62    4.3   314     9.0   695.7    0.00 
 239   19:10   0.00   46.2    61    4.7   327     9.6   695.7    0.00 
 239   19:20   0.00   46.2    61    4.7   325     8.4   695.8    0.00 
 239   19:30   0.00   46.1    62    4.5   325     8.4   695.9    0.00 
 239   19:40   0.00   46.0    62    4.6   326     9.6   696.0    0.00 
 239   19:50   0.00   45.8    63    3.8   326     8.4   696.0    0.00 
 239   20:00   0.00   45.8    63    4.5   326    10.8   696.1    0.00 
 239   20:10   0.00   45.4    65    3.9   326     7.8   696.1    0.00 
 239   20:20   0.00   45.2    67    4.0   320    10.8   696.1    0.00 
 239   20:30   0.00   44.6    70    4.1   324     8.4   696.2    0.00 
 239   20:40   0.00   43.7    72    2.8   323     6.6   696.2    0.00 
 239   20:50   0.00   42.7    73    3.0   320     5.4   696.2    0.00 
 239   21:00   0.00   42.3    73    2.7   327     6.6   696.1    0.00 
 239   21:10   0.00   42.1    74    2.6   322     5.4   696.1    0.00 
 239   21:20   0.00   42.3    73    2.7   325     4.8   696.1    0.00 

Return to Redondo, Valles Caldera graphs page.


Western Regional Climate Center,wrcc@dri.edu